X  Cerrar Datos meteorológicos de aviación METAR     KOMA Eppley Airfield
Temperatura
37°F Temperatura
27°F Punto de rocío
65% Humedad



Viento
0 MPH
0 KM/H
0 M/S
0 NUDO



Calma
Norte
Condiciones actuales

Mayormente nublado Mayormente nublado
Presión 1028.82 (hPa) - 30.38 (inHg)
Visibilidad 9.9 (milla) - 16 (km)
Aeropuerto
Código de aeropuerto KOMA

localidad: Eppley Airfield
Distancia: 20 (mi)

Metar:
KOMA 041552Z 00000KT 10SM BKN095 BKN200 03/M03 A3038 RMK AO2 SLP295 T00331028

Hora: 12-04-2021 09:52 CST